Woodstock, Virginia
Current Conditions -  °F | °C
As of 3:15 PM on Wednesday 28 Jan 2015 (Local Time) from KFRR Reporting Station
Clear Clear  
Wind Chill: 31°   Ceiling: Unl
Heat Index: 36°   Visibility: 10mi
Dew Point:   Wind: 6mph
Humidity: 30%   Direction: 340°NNW
Pressure: 30.23"   Gusts: NA
Location:  38.88°N, 78.51°W
Report Text: KFRR 282015Z AUTO 34005KT 10SM CLR 02/M14 A3023 RMK AO1
Loading
Personal Weather Stations






























Interactive Weather Map New forecast layout! Learn more

10-Day Weather Forecast

Advertisements
Track Severe Weather on mobile